sensor_id;sensor_type;location;lat;lon;timestamp;P1;durP1;ratioP1;P2;durP2;ratioP2
24159;SDS011;62385;41.594;23.808;2023-04-24T00:00:10;0.97;;;0.80;;
24159;SDS011;62385;41.594;23.808;2023-04-24T00:02:41;2.07;;;1.33;;
24159;SDS011;62385;41.594;23.808;2023-04-24T00:05:11;3.10;;;1.93;;
24159;SDS011;62385;41.594;23.808;2023-04-24T00:07:37;2.50;;;1.87;;
24159;SDS011;62385;41.594;23.808;2023-04-24T00:10:03;2.57;;;1.63;;
24159;SDS011;62385;41.594;23.808;2023-04-24T00:12:30;1.63;;;1.10;;
24159;SDS011;62385;41.594;23.808;2023-04-24T00:14:56;2.53;;;1.03;;
24159;SDS011;62385;41.594;23.808;2023-04-24T00:17:22;1.10;;;1.00;;
24159;SDS011;62385;41.594;23.808;2023-04-24T00:19:48;2.80;;;1.27;;
24159;SDS011;62385;41.594;23.808;2023-04-24T00:22:16;3.77;;;1.60;;
24159;SDS011;62385;41.594;23.808;2023-04-24T00:24:42;2.27;;;1.37;;
24159;SDS011;62385;41.594;23.808;2023-04-24T00:27:08;1.77;;;1.50;;
24159;SDS011;62385;41.594;23.808;2023-04-24T00:29:34;1.00;;;0.87;;
24159;SDS011;62385;41.594;23.808;2023-04-24T00:31:59;1.73;;;1.63;;
24159;SDS011;62385;41.594;23.808;2023-04-24T00:34:25;1.43;;;1.33;;
24159;SDS011;62385;41.594;23.808;2023-04-24T00:36:51;1.77;;;1.27;;
24159;SDS011;62385;41.594;23.808;2023-04-24T00:39:18;2.73;;;1.73;;
24159;SDS011;62385;41.594;23.808;2023-04-24T00:41:44;1.07;;;0.93;;
24159;SDS011;62385;41.594;23.808;2023-04-24T00:44:11;3.80;;;1.73;;
24159;SDS011;62385;41.594;23.808;2023-04-24T00:46:36;3.33;;;1.50;;
24159;SDS011;62385;41.594;23.808;2023-04-24T00:49:03;2.53;;;1.30;;
24159;SDS011;62385;41.594;23.808;2023-04-24T00:51:30;1.73;;;0.90;;
24159;SDS011;62385;41.594;23.808;2023-04-24T00:53:59;0.97;;;0.97;;
24159;SDS011;62385;41.594;23.808;2023-04-24T00:56:25;0.57;;;0.57;;
24159;SDS011;62385;41.594;23.808;2023-04-24T00:58:51;1.90;;;1.00;;
24159;SDS011;62385;41.594;23.808;2023-04-24T01:01:20;1.43;;;1.10;;
24159;SDS011;62385;41.594;23.808;2023-04-24T01:03:47;2.93;;;1.73;;
24159;SDS011;62385;41.594;23.808;2023-04-24T01:06:15;1.10;;;1.07;;
24159;SDS011;62385;41.594;23.808;2023-04-24T01:08:42;2.55;;;2.25;;
24159;SDS011;62385;41.594;23.808;2023-04-24T01:11:10;2.07;;;1.43;;
24159;SDS011;62385;41.594;23.808;2023-04-24T01:13:37;2.67;;;1.87;;
24159;SDS011;62385;41.594;23.808;2023-04-24T01:16:02;2.37;;;1.70;;
24159;SDS011;62385;41.594;23.808;2023-04-24T01:18:28;3.03;;;1.87;;
24159;SDS011;62385;41.594;23.808;2023-04-24T01:20:56;2.23;;;1.03;;
24159;SDS011;62385;41.594;23.808;2023-04-24T01:23:23;2.90;;;1.33;;
24159;SDS011;62385;41.594;23.808;2023-04-24T01:25:50;4.37;;;1.73;;
24159;SDS011;62385;41.594;23.808;2023-04-24T01:28:17;2.37;;;1.30;;
24159;SDS011;62385;41.594;23.808;2023-04-24T01:30:43;3.40;;;1.97;;
24159;SDS011;62385;41.594;23.808;2023-04-24T01:33:09;2.07;;;1.27;;
24159;SDS011;62385;41.594;23.808;2023-04-24T01:35:35;1.73;;;1.63;;
24159;SDS011;62385;41.594;23.808;2023-04-24T01:38:02;4.33;;;1.47;;
24159;SDS011;62385;41.594;23.808;2023-04-24T01:40:28;1.57;;;1.43;;
24159;SDS011;62385;41.594;23.808;2023-04-24T01:42:56;3.03;;;2.00;;
24159;SDS011;62385;41.594;23.808;2023-04-24T01:45:22;5.00;;;2.37;;
24159;SDS011;62385;41.594;23.808;2023-04-24T01:47:48;11.97;;;5.10;;
24159;SDS011;62385;41.594;23.808;2023-04-24T01:50:16;5.20;;;1.50;;
24159;SDS011;62385;41.594;23.808;2023-04-24T01:52:42;1.00;;;0.90;;
24159;SDS011;62385;41.594;23.808;2023-04-24T01:55:08;1.90;;;1.13;;
24159;SDS011;62385;41.594;23.808;2023-04-24T01:57:36;1.73;;;1.40;;
24159;SDS011;62385;41.594;23.808;2023-04-24T02:00:03;4.57;;;2.20;;
24159;SDS011;62385;41.594;23.808;2023-04-24T02:02:41;3.13;;;1.20;;
24159;SDS011;62385;41.594;23.808;2023-04-24T02:05:08;1.57;;;1.47;;
24159;SDS011;62385;41.594;23.808;2023-04-24T02:07:35;1.40;;;0.93;;
24159;SDS011;62385;41.594;23.808;2023-04-24T02:10:01;1.57;;;1.17;;
24159;SDS011;62385;41.594;23.808;2023-04-24T02:12:27;2.23;;;1.73;;
24159;SDS011;62385;41.594;23.808;2023-04-24T02:14:52;0.97;;;0.87;;
24159;SDS011;62385;41.594;23.808;2023-04-24T02:17:18;1.17;;;1.03;;
24159;SDS011;62385;41.594;23.808;2023-04-24T02:19:44;1.53;;;0.97;;
24159;SDS011;62385;41.594;23.808;2023-04-24T02:22:10;2.57;;;1.43;;
24159;SDS011;62385;41.594;23.808;2023-04-24T02:24:36;3.88;;;2.05;;
24159;SDS011;62385;41.594;23.808;2023-04-24T02:27:02;6.37;;;1.43;;
24159;SDS011;62385;41.594;23.808;2023-04-24T02:29:28;2.35;;;1.48;;
24159;SDS011;62385;41.594;23.808;2023-04-24T02:31:54;2.93;;;2.63;;
24159;SDS011;62385;41.594;23.808;2023-04-24T02:34:19;3.90;;;1.87;;
24159;SDS011;62385;41.594;23.808;2023-04-24T02:36:45;1.77;;;1.57;;
24159;SDS011;62385;41.594;23.808;2023-04-24T02:39:13;10.80;;;1.97;;
24159;SDS011;62385;41.594;23.808;2023-04-24T02:41:42;2.30;;;1.40;;
24159;SDS011;62385;41.594;23.808;2023-04-24T02:44:08;2.37;;;1.77;;
24159;SDS011;62385;41.594;23.808;2023-04-24T02:46:33;4.77;;;2.07;;
24159;SDS011;62385;41.594;23.808;2023-04-24T02:48:59;1.77;;;1.60;;
24159;SDS011;62385;41.594;23.808;2023-04-24T02:51:25;3.27;;;1.60;;
24159;SDS011;62385;41.594;23.808;2023-04-24T02:53:52;4.47;;;1.43;;
24159;SDS011;62385;41.594;23.808;2023-04-24T02:56:17;2.00;;;1.27;;
24159;SDS011;62385;41.594;23.808;2023-04-24T02:58:43;2.60;;;1.83;;
24159;SDS011;62385;41.594;23.808;2023-04-24T03:01:09;0.90;;;0.73;;
24159;SDS011;62385;41.594;23.808;2023-04-24T03:03:38;3.97;;;1.60;;
24159;SDS011;62385;41.594;23.808;2023-04-24T03:06:05;1.90;;;1.70;;
24159;SDS011;62385;41.594;23.808;2023-04-24T03:08:33;2.93;;;1.77;;
24159;SDS011;62385;41.594;23.808;2023-04-24T03:10:58;2.20;;;1.43;;
24159;SDS011;62385;41.594;23.808;2023-04-24T03:13:24;3.33;;;2.50;;
24159;SDS011;62385;41.594;23.808;2023-04-24T03:15:50;1.70;;;1.17;;
24159;SDS011;62385;41.594;23.808;2023-04-24T03:18:16;1.37;;;1.27;;
24159;SDS011;62385;41.594;23.808;2023-04-24T03:20:41;1.53;;;1.23;;
24159;SDS011;62385;41.594;23.808;2023-04-24T03:23:07;2.53;;;1.30;;
24159;SDS011;62385;41.594;23.808;2023-04-24T03:25:34;4.57;;;2.53;;
24159;SDS011;62385;41.594;23.808;2023-04-24T03:28:00;5.60;;;2.57;;
24159;SDS011;62385;41.594;23.808;2023-04-24T03:30:46;2.20;;;1.93;;
24159;SDS011;62385;41.594;23.808;2023-04-24T03:33:13;3.03;;;1.88;;
24159;SDS011;62385;41.594;23.808;2023-04-24T03:35:47;3.47;;;1.93;;
24159;SDS011;62385;41.594;23.808;2023-04-24T03:38:13;2.43;;;1.57;;
24159;SDS011;62385;41.594;23.808;2023-04-24T03:40:41;1.73;;;1.63;;
24159;SDS011;62385;41.594;23.808;2023-04-24T03:43:23;1.70;;;1.60;;
24159;SDS011;62385;41.594;23.808;2023-04-24T03:45:49;2.70;;;1.47;;
24159;SDS011;62385;41.594;23.808;2023-04-24T03:48:16;1.37;;;1.13;;
24159;SDS011;62385;41.594;23.808;2023-04-24T03:50:42;6.63;;;2.17;;
24159;SDS011;62385;41.594;23.808;2023-04-24T03:53:10;2.08;;;1.50;;
24159;SDS011;62385;41.594;23.808;2023-04-24T03:55:38;1.77;;;1.23;;
24159;SDS011;62385;41.594;23.808;2023-04-24T03:58:04;2.47;;;2.10;;
24159;SDS011;62385;41.594;23.808;2023-04-24T04:00:31;4.05;;;2.72;;
24159;SDS011;62385;41.594;23.808;2023-04-24T04:03:17;2.33;;;1.43;;
24159;SDS011;62385;41.594;23.808;2023-04-24T04:05:42;6.60;;;2.77;;
24159;SDS011;62385;41.594;23.808;2023-04-24T04:08:08;2.27;;;1.87;;
24159;SDS011;62385;41.594;23.808;2023-04-24T04:10:34;5.65;;;2.63;;
24159;SDS011;62385;41.594;23.808;2023-04-24T04:12:59;7.05;;;4.28;;
24159;SDS011;62385;41.594;23.808;2023-04-24T04:15:26;13.85;;;6.30;;
24159;SDS011;62385;41.594;23.808;2023-04-24T04:17:52;10.13;;;5.27;;
24159;SDS011;62385;41.594;23.808;2023-04-24T04:20:18;7.22;;;4.03;;
24159;SDS011;62385;41.594;23.808;2023-04-24T04:22:43;7.40;;;3.53;;
24159;SDS011;62385;41.594;23.808;2023-04-24T04:25:12;5.87;;;3.67;;
24159;SDS011;62385;41.594;23.808;2023-04-24T04:27:38;3.60;;;2.77;;
24159;SDS011;62385;41.594;23.808;2023-04-24T04:30:10;2.53;;;2.33;;
24159;SDS011;62385;41.594;23.808;2023-04-24T04:32:51;6.78;;;3.88;;
24159;SDS011;62385;41.594;23.808;2023-04-24T04:35:17;8.35;;;4.57;;
24159;SDS011;62385;41.594;23.808;2023-04-24T04:37:43;7.05;;;4.85;;
24159;SDS011;62385;41.594;23.808;2023-04-24T04:40:30;5.60;;;4.22;;
24159;SDS011;62385;41.594;23.808;2023-04-24T04:43:00;5.88;;;3.63;;
24159;SDS011;62385;41.594;23.808;2023-04-24T04:45:30;6.30;;;4.30;;
24159;SDS011;62385;41.594;23.808;2023-04-24T04:48:14;6.13;;;3.40;;
24159;SDS011;62385;41.594;23.808;2023-04-24T04:51:01;5.95;;;4.20;;
24159;SDS011;62385;41.594;23.808;2023-04-24T04:53:28;4.38;;;3.58;;
24159;SDS011;62385;41.594;23.808;2023-04-24T04:55:54;5.63;;;3.53;;
24159;SDS011;62385;41.594;23.808;2023-04-24T04:58:25;10.35;;;4.22;;
24159;SDS011;62385;41.594;23.808;2023-04-24T05:00:55;6.80;;;3.40;;
24159;SDS011;62385;41.594;23.808;2023-04-24T05:03:44;13.83;;;5.60;;
24159;SDS011;62385;41.594;23.808;2023-04-24T05:06:12;9.53;;;5.60;;
24159;SDS011;62385;41.594;23.808;2023-04-24T05:08:38;16.33;;;6.97;;
24159;SDS011;62385;41.594;23.808;2023-04-24T05:11:08;11.52;;;4.45;;
24159;SDS011;62385;41.594;23.808;2023-04-24T05:13:35;7.18;;;2.72;;
24159;SDS011;62385;41.594;23.808;2023-04-24T05:16:03;3.90;;;3.10;;
24159;SDS011;62385;41.594;23.808;2023-04-24T05:18:30;6.22;;;2.80;;
24159;SDS011;62385;41.594;23.808;2023-04-24T05:20:56;4.68;;;2.70;;
24159;SDS011;62385;41.594;23.808;2023-04-24T05:23:22;5.25;;;3.42;;
24159;SDS011;62385;41.594;23.808;2023-04-24T05:25:51;5.60;;;2.53;;
24159;SDS011;62385;41.594;23.808;2023-04-24T05:28:16;6.07;;;4.03;;
24159;SDS011;62385;41.594;23.808;2023-04-24T05:30:47;5.07;;;3.30;;
24159;SDS011;62385;41.594;23.808;2023-04-24T05:33:14;4.85;;;2.33;;
24159;SDS011;62385;41.594;23.808;2023-04-24T05:35:40;3.17;;;1.83;;
24159;SDS011;62385;41.594;23.808;2023-04-24T05:38:11;10.18;;;2.40;;
24159;SDS011;62385;41.594;23.808;2023-04-24T05:40:38;6.15;;;4.07;;
24159;SDS011;62385;41.594;23.808;2023-04-24T05:43:04;9.82;;;3.90;;
24159;SDS011;62385;41.594;23.808;2023-04-24T05:45:30;7.15;;;3.72;;
24159;SDS011;62385;41.594;23.808;2023-04-24T05:47:58;5.15;;;3.45;;
24159;SDS011;62385;41.594;23.808;2023-04-24T05:50:24;4.50;;;4.07;;
24159;SDS011;62385;41.594;23.808;2023-04-24T05:52:50;3.15;;;2.65;;
24159;SDS011;62385;41.594;23.808;2023-04-24T05:55:25;5.32;;;3.13;;
24159;SDS011;62385;41.594;23.808;2023-04-24T05:57:52;4.80;;;3.13;;
24159;SDS011;62385;41.594;23.808;2023-04-24T06:00:18;6.30;;;3.65;;
24159;SDS011;62385;41.594;23.808;2023-04-24T06:02:51;13.18;;;6.57;;
24159;SDS011;62385;41.594;23.808;2023-04-24T06:05:19;10.75;;;6.47;;
24159;SDS011;62385;41.594;23.808;2023-04-24T06:07:45;5.38;;;3.58;;
24159;SDS011;62385;41.594;23.808;2023-04-24T06:10:11;5.75;;;3.70;;
24159;SDS011;62385;41.594;23.808;2023-04-24T06:12:42;3.30;;;2.65;;
24159;SDS011;62385;41.594;23.808;2023-04-24T06:15:14;3.72;;;2.75;;
24159;SDS011;62385;41.594;23.808;2023-04-24T06:17:56;5.35;;;4.53;;
24159;SDS011;62385;41.594;23.808;2023-04-24T06:20:24;6.78;;;4.72;;
24159;SDS011;62385;41.594;23.808;2023-04-24T06:22:50;5.38;;;4.13;;
24159;SDS011;62385;41.594;23.808;2023-04-24T06:25:16;6.07;;;3.13;;
24159;SDS011;62385;41.594;23.808;2023-04-24T06:27:42;3.45;;;2.67;;
24159;SDS011;62385;41.594;23.808;2023-04-24T06:30:08;5.95;;;3.08;;
24159;SDS011;62385;41.594;23.808;2023-04-24T06:32:34;5.43;;;3.22;;
24159;SDS011;62385;41.594;23.808;2023-04-24T06:35:00;7.25;;;3.97;;
24159;SDS011;62385;41.594;23.808;2023-04-24T06:37:26;5.10;;;3.35;;
24159;SDS011;62385;41.594;23.808;2023-04-24T06:39:52;4.60;;;2.78;;
24159;SDS011;62385;41.594;23.808;2023-04-24T06:42:17;2.90;;;1.77;;
24159;SDS011;62385;41.594;23.808;2023-04-24T06:44:48;5.35;;;2.72;;
24159;SDS011;62385;41.594;23.808;2023-04-24T06:47:14;3.72;;;2.10;;
24159;SDS011;62385;41.594;23.808;2023-04-24T06:49:41;3.55;;;2.50;;
24159;SDS011;62385;41.594;23.808;2023-04-24T06:52:07;4.10;;;2.70;;
24159;SDS011;62385;41.594;23.808;2023-04-24T06:54:33;1.88;;;1.65;;
24159;SDS011;62385;41.594;23.808;2023-04-24T06:56:59;2.67;;;1.85;;
24159;SDS011;62385;41.594;23.808;2023-04-24T06:59:28;2.42;;;1.83;;
24159;SDS011;62385;41.594;23.808;2023-04-24T07:01:54;5.38;;;2.55;;
24159;SDS011;62385;41.594;23.808;2023-04-24T07:04:20;2.60;;;1.98;;
24159;SDS011;62385;41.594;23.808;2023-04-24T07:06:45;4.10;;;2.63;;
24159;SDS011;62385;41.594;23.808;2023-04-24T07:09:12;2.72;;;2.10;;
24159;SDS011;62385;41.594;23.808;2023-04-24T07:11:39;3.75;;;1.48;;
24159;SDS011;62385;41.594;23.808;2023-04-24T07:14:06;2.22;;;1.65;;
24159;SDS011;62385;41.594;23.808;2023-04-24T07:16:32;5.82;;;2.30;;
24159;SDS011;62385;41.594;23.808;2023-04-24T07:18:58;1.63;;;1.52;;
24159;SDS011;62385;41.594;23.808;2023-04-24T07:21:23;5.72;;;1.88;;
24159;SDS011;62385;41.594;23.808;2023-04-24T07:23:51;3.47;;;2.50;;
24159;SDS011;62385;41.594;23.808;2023-04-24T07:26:17;2.03;;;1.52;;
24159;SDS011;62385;41.594;23.808;2023-04-24T07:28:43;2.00;;;1.33;;
24159;SDS011;62385;41.594;23.808;2023-04-24T07:31:10;6.10;;;2.33;;
24159;SDS011;62385;41.594;23.808;2023-04-24T07:33:36;5.20;;;1.88;;
24159;SDS011;62385;41.594;23.808;2023-04-24T07:36:02;3.28;;;2.22;;
24159;SDS011;62385;41.594;23.808;2023-04-24T07:38:31;4.20;;;2.22;;
24159;SDS011;62385;41.594;23.808;2023-04-24T07:40:57;2.58;;;2.13;;
24159;SDS011;62385;41.594;23.808;2023-04-24T07:43:23;2.85;;;1.73;;
24159;SDS011;62385;41.594;23.808;2023-04-24T07:45:49;4.22;;;2.30;;
24159;SDS011;62385;41.594;23.808;2023-04-24T07:48:16;4.63;;;2.17;;
24159;SDS011;62385;41.594;23.808;2023-04-24T07:50:43;1.88;;;1.67;;
24159;SDS011;62385;41.594;23.808;2023-04-24T07:53:09;2.17;;;1.50;;
24159;SDS011;62385;41.594;23.808;2023-04-24T07:55:35;2.35;;;1.60;;
24159;SDS011;62385;41.594;23.808;2023-04-24T07:58:01;1.75;;;1.65;;
24159;SDS011;62385;41.594;23.808;2023-04-24T08:00:27;3.13;;;2.35;;
24159;SDS011;62385;41.594;23.808;2023-04-24T08:02:52;4.18;;;2.17;;
24159;SDS011;62385;41.594;23.808;2023-04-24T08:05:18;3.20;;;1.77;;
24159;SDS011;62385;41.594;23.808;2023-04-24T08:07:45;1.48;;;1.35;;
24159;SDS011;62385;41.594;23.808;2023-04-24T08:10:13;3.92;;;1.85;;
24159;SDS011;62385;41.594;23.808;2023-04-24T08:12:58;5.63;;;1.83;;
24159;SDS011;62385;41.594;23.808;2023-04-24T08:15:36;2.67;;;1.77;;
24159;SDS011;62385;41.594;23.808;2023-04-24T08:18:02;16.58;;;1.88;;
24159;SDS011;62385;41.594;23.808;2023-04-24T08:20:45;3.78;;;2.13;;
24159;SDS011;62385;41.594;23.808;2023-04-24T08:23:32;2.00;;;0.98;;
24159;SDS011;62385;41.594;23.808;2023-04-24T08:29:03;3.40;;;1.50;;
24159;SDS011;62385;41.594;23.808;2023-04-24T08:35:49;2.03;;;1.27;;
24159;SDS011;62385;41.594;23.808;2023-04-24T08:46:40;3.40;;;2.42;;
24159;SDS011;62385;41.594;23.808;2023-04-24T08:57:30;2.00;;;1.52;;
24159;SDS011;62385;41.594;23.808;2023-04-24T09:24:24;2.05;;;1.48;;
24159;SDS011;62385;41.594;23.808;2023-04-24T09:27:08;2.97;;;1.92;;
24159;SDS011;62385;41.594;23.808;2023-04-24T09:29:37;2.92;;;2.00;;
24159;SDS011;62385;41.594;23.808;2023-04-24T09:32:21;3.03;;;1.48;;
24159;SDS011;62385;41.594;23.808;2023-04-24T09:35:04;2.30;;;1.42;;
24159;SDS011;62385;41.594;23.808;2023-04-24T09:37:36;1.92;;;1.23;;
24159;SDS011;62385;41.594;23.808;2023-04-24T09:40:13;2.22;;;1.50;;
24159;SDS011;62385;41.594;23.808;2023-04-24T09:42:56;2.55;;;1.92;;
24159;SDS011;62385;41.594;23.808;2023-04-24T09:45:27;2.75;;;2.05;;
24159;SDS011;62385;41.594;23.808;2023-04-24T09:47:53;2.42;;;1.55;;
24159;SDS011;62385;41.594;23.808;2023-04-24T09:50:20;2.65;;;1.35;;
24159;SDS011;62385;41.594;23.808;2023-04-24T09:52:55;9.32;;;1.77;;
24159;SDS011;62385;41.594;23.808;2023-04-24T09:55:26;3.33;;;1.80;;
24159;SDS011;62385;41.594;23.808;2023-04-24T09:57:57;6.65;;;1.90;;
24159;SDS011;62385;41.594;23.808;2023-04-24T10:00:26;3.33;;;1.58;;
24159;SDS011;62385;41.594;23.808;2023-04-24T10:02:59;3.33;;;2.53;;
24159;SDS011;62385;41.594;23.808;2023-04-24T10:05:36;1.38;;;1.27;;
24159;SDS011;62385;41.594;23.808;2023-04-24T10:08:08;8.50;;;1.60;;
24159;SDS011;62385;41.594;23.808;2023-04-24T10:10:38;2.75;;;1.98;;
24159;SDS011;62385;41.594;23.808;2023-04-24T10:13:07;1.92;;;1.33;;
24159;SDS011;62385;41.594;23.808;2023-04-24T10:15:34;2.00;;;1.83;;
24159;SDS011;62385;41.594;23.808;2023-04-24T10:18:01;2.33;;;1.20;;
24159;SDS011;62385;41.594;23.808;2023-04-24T10:20:29;1.88;;;1.60;;
24159;SDS011;62385;41.594;23.808;2023-04-24T10:22:56;1.75;;;1.30;;
24159;SDS011;62385;41.594;23.808;2023-04-24T10:25:24;1.52;;;1.23;;
24159;SDS011;62385;41.594;23.808;2023-04-24T10:27:52;1.73;;;1.38;;
24159;SDS011;62385;41.594;23.808;2023-04-24T10:30:22;1.80;;;1.50;;
24159;SDS011;62385;41.594;23.808;2023-04-24T10:32:48;2.95;;;1.85;;
24159;SDS011;62385;41.594;23.808;2023-04-24T10:35:14;1.13;;;1.00;;
24159;SDS011;62385;41.594;23.808;2023-04-24T10:37:44;2.47;;;1.20;;
24159;SDS011;62385;41.594;23.808;2023-04-24T10:40:11;3.58;;;1.70;;
24159;SDS011;62385;41.594;23.808;2023-04-24T10:42:49;1.20;;;1.08;;
24159;SDS011;62385;41.594;23.808;2023-04-24T10:45:19;2.42;;;2.03;;
24159;SDS011;62385;41.594;23.808;2023-04-24T10:47:52;2.63;;;1.83;;
24159;SDS011;62385;41.594;23.808;2023-04-24T10:50:28;1.10;;;1.00;;
24159;SDS011;62385;41.594;23.808;2023-04-24T10:53:06;2.83;;;1.38;;
24159;SDS011;62385;41.594;23.808;2023-04-24T10:55:41;1.52;;;1.13;;
24159;SDS011;62385;41.594;23.808;2023-04-24T10:58:07;1.50;;;1.15;;
24159;SDS011;62385;41.594;23.808;2023-04-24T11:00:32;1.63;;;1.50;;
24159;SDS011;62385;41.594;23.808;2023-04-24T11:03:04;1.40;;;1.05;;
24159;SDS011;62385;41.594;23.808;2023-04-24T11:11:13;1.67;;;1.27;;
24159;SDS011;62385;41.594;23.808;2023-04-24T11:21:47;1.80;;;1.48;;
24159;SDS011;62385;41.594;23.808;2023-04-24T11:26:54;1.50;;;0.93;;
24159;SDS011;62385;41.594;23.808;2023-04-24T11:29:22;2.63;;;1.40;;
24159;SDS011;62385;41.594;23.808;2023-04-24T11:32:14;1.05;;;0.90;;
24159;SDS011;62385;41.594;23.808;2023-04-24T11:34:40;1.42;;;1.20;;
24159;SDS011;62385;41.594;23.808;2023-04-24T11:37:05;2.88;;;0.93;;
24159;SDS011;62385;41.594;23.808;2023-04-24T11:39:36;0.88;;;0.77;;
24159;SDS011;62385;41.594;23.808;2023-04-24T11:42:03;1.67;;;1.25;;
24159;SDS011;62385;41.594;23.808;2023-04-24T11:44:31;1.42;;;0.95;;
24159;SDS011;62385;41.594;23.808;2023-04-24T11:47:06;0.85;;;0.63;;
24159;SDS011;62385;41.594;23.808;2023-04-24T11:49:33;1.42;;;0.75;;
24159;SDS011;62385;41.594;23.808;2023-04-24T11:51:59;0.90;;;0.80;;
24159;SDS011;62385;41.594;23.808;2023-04-24T11:54:26;1.45;;;1.00;;
24159;SDS011;62385;41.594;23.808;2023-04-24T11:56:52;1.35;;;0.85;;
24159;SDS011;62385;41.594;23.808;2023-04-24T11:59:18;1.45;;;1.10;;
24159;SDS011;62385;41.594;23.808;2023-04-24T12:01:44;1.13;;;0.70;;
24159;SDS011;62385;41.594;23.808;2023-04-24T12:04:10;2.65;;;1.33;;
24159;SDS011;62385;41.594;23.808;2023-04-24T12:06:37;0.82;;;0.75;;
24159;SDS011;62385;41.594;23.808;2023-04-24T12:09:02;1.23;;;0.82;;
24159;SDS011;62385;41.594;23.808;2023-04-24T12:11:28;1.42;;;1.10;;
24159;SDS011;62385;41.594;23.808;2023-04-24T12:13:54;0.90;;;0.52;;
24159;SDS011;62385;41.594;23.808;2023-04-24T12:16:19;1.25;;;1.15;;
24159;SDS011;62385;41.594;23.808;2023-04-24T12:18:45;0.60;;;0.60;;
24159;SDS011;62385;41.594;23.808;2023-04-24T12:21:29;1.88;;;0.93;;
24159;SDS011;62385;41.594;23.808;2023-04-24T12:23:57;1.52;;;1.42;;
24159;SDS011;62385;41.594;23.808;2023-04-24T12:26:23;7.40;;;0.73;;
24159;SDS011;62385;41.594;23.808;2023-04-24T12:28:49;3.70;;;0.68;;
24159;SDS011;62385;41.594;23.808;2023-04-24T12:31:18;1.00;;;0.60;;
24159;SDS011;62385;41.594;23.808;2023-04-24T12:33:46;0.63;;;0.35;;
24159;SDS011;62385;41.594;23.808;2023-04-24T12:36:12;1.42;;;1.02;;
24159;SDS011;62385;41.594;23.808;2023-04-24T12:38:38;1.15;;;0.90;;
24159;SDS011;62385;41.594;23.808;2023-04-24T12:41:07;1.52;;;0.75;;
24159;SDS011;62385;41.594;23.808;2023-04-24T12:43:35;0.93;;;0.65;;
24159;SDS011;62385;41.594;23.808;2023-04-24T12:46:01;0.85;;;0.70;;
24159;SDS011;62385;41.594;23.808;2023-04-24T12:48:28;0.60;;;0.60;;
24159;SDS011;62385;41.594;23.808;2023-04-24T12:50:54;10.02;;;1.27;;
24159;SDS011;62385;41.594;23.808;2023-04-24T12:53:22;0.98;;;0.80;;
24159;SDS011;62385;41.594;23.808;2023-04-24T12:55:47;0.80;;;0.70;;
24159;SDS011;62385;41.594;23.808;2023-04-24T12:58:21;1.45;;;0.90;;
24159;SDS011;62385;41.594;23.808;2023-04-24T13:00:47;1.17;;;0.90;;
24159;SDS011;62385;41.594;23.808;2023-04-24T13:03:14;0.98;;;0.77;;
24159;SDS011;62385;41.594;23.808;2023-04-24T13:05:40;1.38;;;0.68;;
24159;SDS011;62385;41.594;23.808;2023-04-24T13:08:08;1.13;;;0.90;;
24159;SDS011;62385;41.594;23.808;2023-04-24T13:10:34;0.65;;;0.65;;
24159;SDS011;62385;41.594;23.808;2023-04-24T13:13:00;0.90;;;0.55;;
24159;SDS011;62385;41.594;23.808;2023-04-24T13:15:26;0.88;;;0.50;;
24159;SDS011;62385;41.594;23.808;2023-04-24T13:17:52;2.35;;;0.93;;
24159;SDS011;62385;41.594;23.808;2023-04-24T13:20:17;1.50;;;0.85;;
24159;SDS011;62385;41.594;23.808;2023-04-24T13:22:44;0.55;;;0.30;;
24159;SDS011;62385;41.594;23.808;2023-04-24T13:25:10;0.60;;;0.47;;
24159;SDS011;62385;41.594;23.808;2023-04-24T13:27:37;0.70;;;0.65;;
24159;SDS011;62385;41.594;23.808;2023-04-24T13:30:04;3.60;;;0.80;;
24159;SDS011;62385;41.594;23.808;2023-04-24T13:32:30;0.85;;;0.70;;
24159;SDS011;62385;41.594;23.808;2023-04-24T13:34:56;1.02;;;0.70;;
24159;SDS011;62385;41.594;23.808;2023-04-24T13:37:22;0.55;;;0.55;;
24159;SDS011;62385;41.594;23.808;2023-04-24T13:39:47;0.50;;;0.50;;
24159;SDS011;62385;41.594;23.808;2023-04-24T13:42:13;1.00;;;0.60;;
24159;SDS011;62385;41.594;23.808;2023-04-24T13:44:39;0.88;;;0.88;;
24159;SDS011;62385;41.594;23.808;2023-04-24T13:47:05;1.02;;;0.80;;
24159;SDS011;62385;41.594;23.808;2023-04-24T13:49:31;0.85;;;0.65;;
24159;SDS011;62385;41.594;23.808;2023-04-24T13:51:56;0.70;;;0.60;;
24159;SDS011;62385;41.594;23.808;2023-04-24T13:54:22;0.90;;;0.65;;
24159;SDS011;62385;41.594;23.808;2023-04-24T13:56:50;1.23;;;1.00;;
24159;SDS011;62385;41.594;23.808;2023-04-24T13:59:17;0.73;;;0.52;;
24159;SDS011;62385;41.594;23.808;2023-04-24T14:01:42;0.50;;;0.50;;
24159;SDS011;62385;41.594;23.808;2023-04-24T14:04:10;0.65;;;0.60;;
24159;SDS011;62385;41.594;23.808;2023-04-24T14:06:36;0.88;;;0.60;;
24159;SDS011;62385;41.594;23.808;2023-04-24T14:09:01;0.98;;;0.80;;
24159;SDS011;62385;41.594;23.808;2023-04-24T14:11:27;1.27;;;1.00;;
24159;SDS011;62385;41.594;23.808;2023-04-24T14:13:54;0.73;;;0.70;;
24159;SDS011;62385;41.594;23.808;2023-04-24T14:16:21;2.25;;;1.05;;
24159;SDS011;62385;41.594;23.808;2023-04-24T14:18:47;1.20;;;0.80;;
24159;SDS011;62385;41.594;23.808;2023-04-24T14:21:13;1.33;;;1.00;;
24159;SDS011;62385;41.594;23.808;2023-04-24T14:23:38;1.20;;;0.90;;
24159;SDS011;62385;41.594;23.808;2023-04-24T14:26:04;1.17;;;0.85;;
24159;SDS011;62385;41.594;23.808;2023-04-24T14:28:29;2.15;;;1.27;;
24159;SDS011;62385;41.594;23.808;2023-04-24T14:30:55;1.02;;;0.75;;
24159;SDS011;62385;41.594;23.808;2023-04-24T14:33:21;1.00;;;0.73;;
24159;SDS011;62385;41.594;23.808;2023-04-24T14:35:47;1.13;;;0.82;;
24159;SDS011;62385;41.594;23.808;2023-04-24T14:38:12;1.30;;;0.70;;
24159;SDS011;62385;41.594;23.808;2023-04-24T14:40:38;0.95;;;0.80;;
24159;SDS011;62385;41.594;23.808;2023-04-24T14:43:04;1.15;;;0.70;;
24159;SDS011;62385;41.594;23.808;2023-04-24T14:45:29;0.80;;;0.55;;
24159;SDS011;62385;41.594;23.808;2023-04-24T14:47:55;1.13;;;0.98;;
24159;SDS011;62385;41.594;23.808;2023-04-24T14:50:21;2.13;;;0.93;;
24159;SDS011;62385;41.594;23.808;2023-04-24T14:52:46;1.25;;;0.98;;
24159;SDS011;62385;41.594;23.808;2023-04-24T14:55:12;0.70;;;0.63;;
24159;SDS011;62385;41.594;23.808;2023-04-24T14:57:38;0.98;;;0.75;;
24159;SDS011;62385;41.594;23.808;2023-04-24T15:00:04;3.72;;;1.00;;
24159;SDS011;62385;41.594;23.808;2023-04-24T15:02:33;1.35;;;0.90;;
24159;SDS011;62385;41.594;23.808;2023-04-24T15:04:59;3.85;;;1.02;;
24159;SDS011;62385;41.594;23.808;2023-04-24T15:07:25;1.70;;;1.08;;
24159;SDS011;62385;41.594;23.808;2023-04-24T15:09:51;1.42;;;0.73;;
24159;SDS011;62385;41.594;23.808;2023-04-24T15:12:18;3.33;;;1.60;;
24159;SDS011;62385;41.594;23.808;2023-04-24T15:14:44;2.20;;;1.05;;
24159;SDS011;62385;41.594;23.808;2023-04-24T15:17:09;1.08;;;0.98;;
24159;SDS011;62385;41.594;23.808;2023-04-24T15:19:35;1.08;;;0.98;;
24159;SDS011;62385;41.594;23.808;2023-04-24T15:22:01;1.33;;;0.85;;
24159;SDS011;62385;41.594;23.808;2023-04-24T15:24:28;1.23;;;1.05;;
24159;SDS011;62385;41.594;23.808;2023-04-24T15:26:54;2.00;;;1.30;;
24159;SDS011;62385;41.594;23.808;2023-04-24T15:29:20;1.05;;;0.90;;
24159;SDS011;62385;41.594;23.808;2023-04-24T15:31:46;1.48;;;1.30;;
24159;SDS011;62385;41.594;23.808;2023-04-24T15:34:11;1.58;;;1.40;;
24159;SDS011;62385;41.594;23.808;2023-04-24T15:36:37;2.22;;;1.80;;
24159;SDS011;62385;41.594;23.808;2023-04-24T15:39:03;1.48;;;1.10;;
24159;SDS011;62385;41.594;23.808;2023-04-24T15:41:28;1.08;;;0.88;;